sensor_id;sensor_type;location;lat;lon;timestamp;P1;durP1;ratioP1;P2;durP2;ratioP2
8361;SDS011;4218;48.326;14.304;2024-03-06T00:25:15;8.70;;;8.40;;
8361;SDS011;4218;48.326;14.304;2024-03-06T00:27:46;9.20;;;8.90;;
8361;SDS011;4218;48.326;14.304;2024-03-06T00:30:15;9.33;;;9.03;;
8361;SDS011;4218;48.326;14.304;2024-03-06T00:32:55;9.40;;;9.10;;
8361;SDS011;4218;48.326;14.304;2024-03-06T00:35:55;9.37;;;9.07;;
8361;SDS011;4218;48.326;14.304;2024-03-06T00:38:42;9.50;;;9.20;;
8361;SDS011;4218;48.326;14.304;2024-03-06T01:54:20;7.80;;;7.60;;
8361;SDS011;4218;48.326;14.304;2024-03-06T01:57:04;8.10;;;7.87;;
8361;SDS011;4218;48.326;14.304;2024-03-06T01:59:38;9.73;;;9.43;;
8361;SDS011;4218;48.326;14.304;2024-03-06T02:02:08;8.40;;;8.10;;
8361;SDS011;4218;48.326;14.304;2024-03-06T02:04:56;7.63;;;7.43;;
8361;SDS011;4218;48.326;14.304;2024-03-06T02:07:24;7.97;;;7.77;;
8361;SDS011;4218;48.326;14.304;2024-03-06T02:09:50;7.60;;;7.40;;
8361;SDS011;4218;48.326;14.304;2024-03-06T02:12:40;7.37;;;7.17;;
8361;SDS011;4218;48.326;14.304;2024-03-06T02:15:08;7.87;;;7.67;;
8361;SDS011;4218;48.326;14.304;2024-03-06T02:17:35;8.93;;;8.63;;
8361;SDS011;4218;48.326;14.304;2024-03-06T02:20:10;7.07;;;6.87;;
8361;SDS011;4218;48.326;14.304;2024-03-06T02:22:59;9.23;;;8.93;;
8361;SDS011;4218;48.326;14.304;2024-03-06T02:25:30;7.93;;;7.73;;
8361;SDS011;4218;48.326;14.304;2024-03-06T02:28:23;8.20;;;7.90;;
8361;SDS011;4218;48.326;14.304;2024-03-06T02:30:58;8.27;;;7.97;;
8361;SDS011;4218;48.326;14.304;2024-03-06T02:33:30;10.37;;;10.00;;
8361;SDS011;4218;48.326;14.304;2024-03-06T02:35:56;11.03;;;10.63;;
8361;SDS011;4218;48.326;14.304;2024-03-06T02:38:51;10.00;;;9.70;;
8361;SDS011;4218;48.326;14.304;2024-03-06T02:41:39;10.87;;;10.47;;
8361;SDS011;4218;48.326;14.304;2024-03-06T02:44:05;10.87;;;10.47;;
8361;SDS011;4218;48.326;14.304;2024-03-06T02:46:46;9.80;;;9.50;;
8361;SDS011;4218;48.326;14.304;2024-03-06T02:49:15;10.37;;;10.00;;
8361;SDS011;4218;48.326;14.304;2024-03-06T02:51:41;8.80;;;8.50;;
8361;SDS011;4218;48.326;14.304;2024-03-06T02:54:14;8.43;;;8.13;;
8361;SDS011;4218;48.326;14.304;2024-03-06T02:56:40;8.60;;;8.30;;
8361;SDS011;4218;48.326;14.304;2024-03-06T02:59:10;8.60;;;8.30;;
8361;SDS011;4218;48.326;14.304;2024-03-06T03:01:44;9.50;;;9.20;;
8361;SDS011;4218;48.326;14.304;2024-03-06T03:04:10;16.60;;;15.97;;
8361;SDS011;4218;48.326;14.304;2024-03-06T03:06:36;10.33;;;9.97;;
8361;SDS011;4218;48.326;14.304;2024-03-06T03:09:07;10.30;;;9.97;;
8361;SDS011;4218;48.326;14.304;2024-03-06T03:11:37;11.87;;;11.47;;
8361;SDS011;4218;48.326;14.304;2024-03-06T03:14:11;8.40;;;8.10;;
8361;SDS011;4218;48.326;14.304;2024-03-06T03:16:39;10.37;;;10.00;;
8361;SDS011;4218;48.326;14.304;2024-03-06T03:19:06;15.50;;;14.90;;
8361;SDS011;4218;48.326;14.304;2024-03-06T03:21:42;11.27;;;10.87;;
8361;SDS011;4218;48.326;14.304;2024-03-06T03:24:14;16.73;;;16.10;;
8361;SDS011;4218;48.326;14.304;2024-03-06T03:26:40;13.97;;;13.47;;
8361;SDS011;4218;48.326;14.304;2024-03-06T03:29:08;12.20;;;11.77;;
8361;SDS011;4218;48.326;14.304;2024-03-06T03:31:34;12.90;;;12.40;;
8361;SDS011;4218;48.326;14.304;2024-03-06T03:34:06;17.40;;;16.73;;
8361;SDS011;4218;48.326;14.304;2024-03-06T03:36:33;15.77;;;15.17;;
8361;SDS011;4218;48.326;14.304;2024-03-06T03:41:57;18.63;;;17.93;;
8361;SDS011;4218;48.326;14.304;2024-03-06T03:44:23;21.13;;;20.27;;
8361;SDS011;4218;48.326;14.304;2024-03-06T03:46:50;16.53;;;15.93;;
8361;SDS011;4218;48.326;14.304;2024-03-06T03:49:18;13.30;;;12.80;;
8361;SDS011;4218;48.326;14.304;2024-03-06T03:51:44;17.30;;;16.63;;
8361;SDS011;4218;48.326;14.304;2024-03-06T03:54:10;13.07;;;12.57;;
8361;SDS011;4218;48.326;14.304;2024-03-06T03:56:36;11.10;;;10.70;;
8361;SDS011;4218;48.326;14.304;2024-03-06T03:59:10;11.83;;;11.43;;
8361;SDS011;4218;48.326;14.304;2024-03-06T04:01:41;11.23;;;10.83;;
8361;SDS011;4218;48.326;14.304;2024-03-06T04:04:09;11.67;;;11.27;;
8361;SDS011;4218;48.326;14.304;2024-03-06T04:06:35;13.03;;;12.53;;
8361;SDS011;4218;48.326;14.304;2024-03-06T04:09:01;13.53;;;13.03;;
8361;SDS011;4218;48.326;14.304;2024-03-06T04:11:29;20.40;;;19.60;;
8361;SDS011;4218;48.326;14.304;2024-03-06T04:13:59;18.77;;;18.07;;
8361;SDS011;4218;48.326;14.304;2024-03-06T04:16:29;18.50;;;17.80;;
8361;SDS011;4218;48.326;14.304;2024-03-06T04:18:58;11.43;;;11.03;;
8361;SDS011;4218;48.326;14.304;2024-03-06T04:21:27;11.50;;;11.10;;
8361;SDS011;4218;48.326;14.304;2024-03-06T04:23:57;13.07;;;12.57;;
8361;SDS011;4218;48.326;14.304;2024-03-06T04:26:23;18.43;;;17.73;;
8361;SDS011;4218;48.326;14.304;2024-03-06T04:28:50;8.73;;;8.43;;
8361;SDS011;4218;48.326;14.304;2024-03-06T04:31:17;10.87;;;10.47;;
8361;SDS011;4218;48.326;14.304;2024-03-06T04:33:44;8.47;;;8.17;;
8361;SDS011;4218;48.326;14.304;2024-03-06T04:36:17;11.27;;;10.87;;
8361;SDS011;4218;48.326;14.304;2024-03-06T04:38:47;9.70;;;9.40;;
8361;SDS011;4218;48.326;14.304;2024-03-06T04:41:14;10.00;;;9.70;;
8361;SDS011;4218;48.326;14.304;2024-03-06T04:43:48;9.60;;;9.30;;
8361;SDS011;4218;48.326;14.304;2024-03-06T04:46:17;11.70;;;11.30;;
8361;SDS011;4218;48.326;14.304;2024-03-06T04:48:50;11.60;;;11.20;;
8361;SDS011;4218;48.326;14.304;2024-03-06T04:51:18;9.10;;;8.80;;
8361;SDS011;4218;48.326;14.304;2024-03-06T04:53:47;13.80;;;13.17;;
8361;SDS011;4218;48.326;14.304;2024-03-06T04:56:18;8.90;;;8.60;;
8361;SDS011;4218;48.326;14.304;2024-03-06T04:58:45;9.83;;;9.50;;
8361;SDS011;4218;48.326;14.304;2024-03-06T05:01:11;11.03;;;10.63;;
8361;SDS011;4218;48.326;14.304;2024-03-06T05:03:54;11.30;;;10.90;;
8361;SDS011;4218;48.326;14.304;2024-03-06T05:06:22;10.87;;;10.47;;
8361;SDS011;4218;48.326;14.304;2024-03-06T05:08:52;17.67;;;17.00;;
8361;SDS011;4218;48.326;14.304;2024-03-06T05:11:17;21.47;;;20.60;;
8361;SDS011;4218;48.326;14.304;2024-03-06T05:13:43;14.20;;;13.70;;
8361;SDS011;4218;48.326;14.304;2024-03-06T05:16:11;12.93;;;12.43;;
8361;SDS011;4218;48.326;14.304;2024-03-06T05:18:37;15.63;;;15.03;;
8361;SDS011;4218;48.326;14.304;2024-03-06T05:21:14;18.30;;;17.60;;
8361;SDS011;4218;48.326;14.304;2024-03-06T05:23:46;13.50;;;13.00;;
8361;SDS011;4218;48.326;14.304;2024-03-06T05:26:16;18.37;;;17.67;;
8361;SDS011;4218;48.326;14.304;2024-03-06T05:28:42;15.33;;;14.73;;
8361;SDS011;4218;48.326;14.304;2024-03-06T05:31:19;14.27;;;13.77;;
8361;SDS011;4218;48.326;14.304;2024-03-06T05:33:49;14.47;;;13.97;;
8361;SDS011;4218;48.326;14.304;2024-03-06T05:36:18;15.93;;;15.33;;
8361;SDS011;4218;48.326;14.304;2024-03-06T05:38:44;11.47;;;11.07;;
8361;SDS011;4218;48.326;14.304;2024-03-06T05:41:10;13.67;;;13.17;;
8361;SDS011;4218;48.326;14.304;2024-03-06T05:43:43;14.30;;;13.80;;
8361;SDS011;4218;48.326;14.304;2024-03-06T05:46:12;19.83;;;19.03;;
8361;SDS011;4218;48.326;14.304;2024-03-06T05:48:57;19.07;;;18.33;;
8361;SDS011;4218;48.326;14.304;2024-03-06T05:51:30;15.97;;;15.37;;
8361;SDS011;4218;48.326;14.304;2024-03-06T05:54:00;10.60;;;10.20;;
8361;SDS011;4218;48.326;14.304;2024-03-06T05:56:36;12.17;;;11.77;;
8361;SDS011;4218;48.326;14.304;2024-03-06T05:59:06;12.67;;;12.20;;
8361;SDS011;4218;48.326;14.304;2024-03-06T06:01:49;12.87;;;12.37;;
8361;SDS011;4218;48.326;14.304;2024-03-06T06:04:21;12.30;;;11.90;;
8361;SDS011;4218;48.326;14.304;2024-03-06T06:06:56;9.40;;;9.10;;
8361;SDS011;4218;48.326;14.304;2024-03-06T06:09:35;12.43;;;12.00;;
8361;SDS011;4218;48.326;14.304;2024-03-06T06:12:02;13.50;;;13.00;;
8361;SDS011;4218;48.326;14.304;2024-03-06T06:14:31;11.10;;;10.70;;
8361;SDS011;4218;48.326;14.304;2024-03-06T06:16:57;12.43;;;12.00;;
8361;SDS011;4218;48.326;14.304;2024-03-06T06:22:41;15.10;;;14.50;;
8361;SDS011;4218;48.326;14.304;2024-03-06T06:25:07;11.73;;;11.33;;
8361;SDS011;4218;48.326;14.304;2024-03-06T06:27:35;9.00;;;8.70;;
8361;SDS011;4218;48.326;14.304;2024-03-06T06:30:03;11.30;;;10.90;;
8361;SDS011;4218;48.326;14.304;2024-03-06T06:32:36;9.40;;;9.10;;
8361;SDS011;4218;48.326;14.304;2024-03-06T06:35:05;10.27;;;9.93;;
8361;SDS011;4218;48.326;14.304;2024-03-06T06:37:42;8.73;;;8.43;;
8361;SDS011;4218;48.326;14.304;2024-03-06T06:40:18;9.10;;;8.80;;
8361;SDS011;4218;48.326;14.304;2024-03-06T06:43:32;9.90;;;9.60;;
8361;SDS011;4218;48.326;14.304;2024-03-06T06:46:23;11.10;;;10.70;;
8361;SDS011;4218;48.326;14.304;2024-03-06T06:48:50;10.10;;;9.80;;
8361;SDS011;4218;48.326;14.304;2024-03-06T06:51:27;8.63;;;8.33;;
8361;SDS011;4218;48.326;14.304;2024-03-06T06:54:07;11.10;;;10.70;;
8361;SDS011;4218;48.326;14.304;2024-03-06T06:56:57;8.33;;;8.03;;
8361;SDS011;4218;48.326;14.304;2024-03-06T06:59:57;22.30;;;21.40;;
8361;SDS011;4218;48.326;14.304;2024-03-06T07:02:51;9.27;;;8.97;;
8361;SDS011;4218;48.326;14.304;2024-03-06T07:05:17;10.87;;;10.47;;
8361;SDS011;4218;48.326;14.304;2024-03-06T07:07:43;13.57;;;13.07;;
8361;SDS011;4218;48.326;14.304;2024-03-06T07:10:08;8.60;;;8.30;;
8361;SDS011;4218;48.326;14.304;2024-03-06T07:12:34;8.93;;;8.63;;
8361;SDS011;4218;48.326;14.304;2024-03-06T07:15:00;10.67;;;10.27;;
8361;SDS011;4218;48.326;14.304;2024-03-06T07:17:25;10.50;;;10.10;;
8361;SDS011;4218;48.326;14.304;2024-03-06T07:20:03;9.97;;;9.40;;
8361;SDS011;4218;48.326;14.304;2024-03-06T08:57:44;11.27;;;10.87;;
8361;SDS011;4218;48.326;14.304;2024-03-06T09:00:13;18.83;;;18.07;;
8361;SDS011;4218;48.326;14.304;2024-03-06T10:48:13;6.73;;;6.53;;
8361;SDS011;4218;48.326;14.304;2024-03-06T10:50:43;7.70;;;7.50;;
8361;SDS011;4218;48.326;14.304;2024-03-06T10:53:16;7.10;;;6.90;;
8361;SDS011;4218;48.326;14.304;2024-03-06T10:55:45;8.30;;;8.00;;
8361;SDS011;4218;48.326;14.304;2024-03-06T10:58:11;8.87;;;8.57;;
8361;SDS011;4218;48.326;14.304;2024-03-06T11:03:25;8.53;;;8.23;;
8361;SDS011;4218;48.326;14.304;2024-03-06T11:06:36;9.07;;;8.77;;
8361;SDS011;4218;48.326;14.304;2024-03-06T11:09:43;8.40;;;8.10;;
8361;SDS011;4218;48.326;14.304;2024-03-06T11:13:01;8.43;;;8.13;;
8361;SDS011;4218;48.326;14.304;2024-03-06T11:33:07;10.70;;;10.30;;
8361;SDS011;4218;48.326;14.304;2024-03-06T11:39:17;12.87;;;12.37;;
8361;SDS011;4218;48.326;14.304;2024-03-06T14:02:20;8.30;;;8.00;;
8361;SDS011;4218;48.326;14.304;2024-03-06T14:04:46;8.37;;;8.07;;
8361;SDS011;4218;48.326;14.304;2024-03-06T14:12:15;7.93;;;7.73;;
8361;SDS011;4218;48.326;14.304;2024-03-06T14:14:41;8.73;;;8.43;;
8361;SDS011;4218;48.326;14.304;2024-03-06T14:17:09;8.23;;;7.97;;
8361;SDS011;4218;48.326;14.304;2024-03-06T14:19:35;7.90;;;7.70;;
8361;SDS011;4218;48.326;14.304;2024-03-06T14:22:10;8.90;;;8.60;;
8361;SDS011;4218;48.326;14.304;2024-03-06T14:24:56;10.37;;;10.00;;
8361;SDS011;4218;48.326;14.304;2024-03-06T14:28:19;7.67;;;7.47;;
8361;SDS011;4218;48.326;14.304;2024-03-06T14:30:46;7.93;;;7.73;;
8361;SDS011;4218;48.326;14.304;2024-03-06T14:33:21;8.43;;;8.13;;
8361;SDS011;4218;48.326;14.304;2024-03-06T14:36:11;12.67;;;12.17;;
8361;SDS011;4218;48.326;14.304;2024-03-06T14:41:15;8.93;;;8.63;;
8361;SDS011;4218;48.326;14.304;2024-03-06T14:43:41;9.63;;;9.33;;
8361;SDS011;4218;48.326;14.304;2024-03-06T14:46:09;9.57;;;9.23;;
8361;SDS011;4218;48.326;14.304;2024-03-06T14:48:37;8.60;;;8.30;;
8361;SDS011;4218;48.326;14.304;2024-03-06T14:51:05;10.50;;;10.10;;
8361;SDS011;4218;48.326;14.304;2024-03-06T14:53:35;11.50;;;11.07;;
8361;SDS011;4218;48.326;14.304;2024-03-06T14:56:03;11.27;;;10.77;;
8361;SDS011;4218;48.326;14.304;2024-03-06T14:58:29;9.60;;;9.30;;
8361;SDS011;4218;48.326;14.304;2024-03-06T15:00:54;9.37;;;9.07;;
8361;SDS011;4218;48.326;14.304;2024-03-06T15:03:19;9.03;;;8.73;;
8361;SDS011;4218;48.326;14.304;2024-03-06T15:05:57;40.90;;;18.03;;
8361;SDS011;4218;48.326;14.304;2024-03-06T15:08:22;9.60;;;9.30;;
8361;SDS011;4218;48.326;14.304;2024-03-06T15:10:50;10.20;;;9.80;;
8361;SDS011;4218;48.326;14.304;2024-03-06T15:18:59;9.20;;;8.90;;
8361;SDS011;4218;48.326;14.304;2024-03-06T15:21:24;8.80;;;8.50;;
8361;SDS011;4218;48.326;14.304;2024-03-06T15:23:50;11.33;;;10.83;;
8361;SDS011;4218;48.326;14.304;2024-03-06T15:26:16;9.03;;;8.73;;
8361;SDS011;4218;48.326;14.304;2024-03-06T15:28:42;10.23;;;9.87;;
8361;SDS011;4218;48.326;14.304;2024-03-06T15:31:07;8.07;;;7.83;;
8361;SDS011;4218;48.326;14.304;2024-03-06T15:33:33;9.53;;;9.23;;
8361;SDS011;4218;48.326;14.304;2024-03-06T15:35:59;8.63;;;8.33;;
8361;SDS011;4218;48.326;14.304;2024-03-06T15:38:25;12.13;;;11.73;;
8361;SDS011;4218;48.326;14.304;2024-03-06T15:40:54;9.13;;;8.83;;
8361;SDS011;4218;48.326;14.304;2024-03-06T15:43:20;9.03;;;8.73;;
8361;SDS011;4218;48.326;14.304;2024-03-06T15:45:45;8.47;;;8.17;;
8361;SDS011;4218;48.326;14.304;2024-03-06T15:48:10;7.70;;;7.50;;
8361;SDS011;4218;48.326;14.304;2024-03-06T15:50:39;8.50;;;8.20;;
8361;SDS011;4218;48.326;14.304;2024-03-06T15:53:08;8.70;;;8.40;;
8361;SDS011;4218;48.326;14.304;2024-03-06T15:55:34;7.60;;;7.40;;
8361;SDS011;4218;48.326;14.304;2024-03-06T15:58:02;7.30;;;7.10;;
8361;SDS011;4218;48.326;14.304;2024-03-06T16:00:34;8.20;;;7.93;;
8361;SDS011;4218;48.326;14.304;2024-03-06T16:03:01;7.97;;;7.77;;
8361;SDS011;4218;48.326;14.304;2024-03-06T20:36:45;6.87;;;6.67;;
8361;SDS011;4218;48.326;14.304;2024-03-06T20:39:11;7.80;;;7.60;;
8361;SDS011;4218;48.326;14.304;2024-03-06T20:41:46;9.07;;;8.77;;
8361;SDS011;4218;48.326;14.304;2024-03-06T20:44:12;7.87;;;7.67;;
8361;SDS011;4218;48.326;14.304;2024-03-06T20:46:39;7.53;;;7.23;;
8361;SDS011;4218;48.326;14.304;2024-03-06T20:49:05;7.40;;;7.20;;
8361;SDS011;4218;48.326;14.304;2024-03-06T20:51:31;7.90;;;7.60;;
8361;SDS011;4218;48.326;14.304;2024-03-06T20:53:57;8.40;;;8.10;;
8361;SDS011;4218;48.326;14.304;2024-03-06T20:56:28;7.33;;;7.13;;
8361;SDS011;4218;48.326;14.304;2024-03-06T20:58:54;7.97;;;7.73;;
8361;SDS011;4218;48.326;14.304;2024-03-06T21:01:22;6.80;;;6.60;;
8361;SDS011;4218;48.326;14.304;2024-03-06T21:03:47;6.93;;;6.73;;
8361;SDS011;4218;48.326;14.304;2024-03-06T21:06:13;7.23;;;7.03;;
8361;SDS011;4218;48.326;14.304;2024-03-06T21:08:38;7.63;;;7.43;;
8361;SDS011;4218;48.326;14.304;2024-03-06T21:11:04;7.20;;;7.00;;
8361;SDS011;4218;48.326;14.304;2024-03-06T21:13:32;6.90;;;6.70;;
8361;SDS011;4218;48.326;14.304;2024-03-06T21:15:58;6.80;;;6.60;;
8361;SDS011;4218;48.326;14.304;2024-03-06T21:18:23;7.47;;;7.27;;
8361;SDS011;4218;48.326;14.304;2024-03-06T21:20:49;7.87;;;7.67;;
8361;SDS011;4218;48.326;14.304;2024-03-06T21:23:14;7.20;;;7.00;;
8361;SDS011;4218;48.326;14.304;2024-03-06T21:25:40;7.10;;;6.90;;
8361;SDS011;4218;48.326;14.304;2024-03-06T21:28:06;7.30;;;7.10;;
8361;SDS011;4218;48.326;14.304;2024-03-06T21:30:31;7.93;;;7.73;;
8361;SDS011;4218;48.326;14.304;2024-03-06T21:32:58;7.07;;;6.87;;
8361;SDS011;4218;48.326;14.304;2024-03-06T21:35:24;7.20;;;7.00;;
8361;SDS011;4218;48.326;14.304;2024-03-06T21:37:50;6.57;;;6.37;;
8361;SDS011;4218;48.326;14.304;2024-03-06T21:40:15;7.87;;;7.67;;
8361;SDS011;4218;48.326;14.304;2024-03-06T21:42:41;7.03;;;6.83;;
8361;SDS011;4218;48.326;14.304;2024-03-06T21:45:07;7.80;;;7.60;;
8361;SDS011;4218;48.326;14.304;2024-03-06T21:47:33;8.40;;;8.10;;
8361;SDS011;4218;48.326;14.304;2024-03-06T21:49:59;10.93;;;10.43;;
8361;SDS011;4218;48.326;14.304;2024-03-06T21:52:25;9.80;;;9.37;;
8361;SDS011;4218;48.326;14.304;2024-03-06T21:54:51;7.10;;;6.90;;
8361;SDS011;4218;48.326;14.304;2024-03-06T21:57:16;7.07;;;6.87;;
8361;SDS011;4218;48.326;14.304;2024-03-06T21:59:42;8.87;;;8.57;;
8361;SDS011;4218;48.326;14.304;2024-03-06T22:02:08;8.00;;;7.77;;
8361;SDS011;4218;48.326;14.304;2024-03-06T22:04:35;9.63;;;9.33;;
8361;SDS011;4218;48.326;14.304;2024-03-06T22:07:01;9.50;;;9.07;;
8361;SDS011;4218;48.326;14.304;2024-03-06T22:09:28;12.40;;;11.37;;
8361;SDS011;4218;48.326;14.304;2024-03-06T22:11:54;10.20;;;9.67;;
8361;SDS011;4218;48.326;14.304;2024-03-06T22:14:19;9.20;;;8.90;;
8361;SDS011;4218;48.326;14.304;2024-03-06T22:16:45;8.53;;;8.20;;
8361;SDS011;4218;48.326;14.304;2024-03-06T22:19:11;7.10;;;6.90;;
8361;SDS011;4218;48.326;14.304;2024-03-06T22:21:38;9.13;;;8.83;;
8361;SDS011;4218;48.326;14.304;2024-03-06T22:24:03;10.00;;;9.70;;
8361;SDS011;4218;48.326;14.304;2024-03-06T22:26:29;9.30;;;9.00;;
8361;SDS011;4218;48.326;14.304;2024-03-06T22:28:54;9.37;;;8.77;;
8361;SDS011;4218;48.326;14.304;2024-03-06T22:31:21;9.20;;;8.90;;
8361;SDS011;4218;48.326;14.304;2024-03-06T22:33:47;7.77;;;7.57;;
8361;SDS011;4218;48.326;14.304;2024-03-06T22:36:16;7.70;;;7.50;;
8361;SDS011;4218;48.326;14.304;2024-03-06T22:38:42;8.43;;;8.13;;
8361;SDS011;4218;48.326;14.304;2024-03-06T22:41:16;7.30;;;7.10;;
8361;SDS011;4218;48.326;14.304;2024-03-06T22:43:44;8.40;;;8.10;;
8361;SDS011;4218;48.326;14.304;2024-03-06T22:46:10;8.40;;;8.10;;
8361;SDS011;4218;48.326;14.304;2024-03-06T22:48:36;9.63;;;9.33;;
8361;SDS011;4218;48.326;14.304;2024-03-06T22:51:01;9.00;;;8.70;;
8361;SDS011;4218;48.326;14.304;2024-03-06T22:53:27;8.93;;;8.63;;
8361;SDS011;4218;48.326;14.304;2024-03-06T22:55:52;7.30;;;7.10;;
8361;SDS011;4218;48.326;14.304;2024-03-06T22:58:18;6.97;;;6.77;;
8361;SDS011;4218;48.326;14.304;2024-03-06T23:00:43;8.50;;;8.20;;
8361;SDS011;4218;48.326;14.304;2024-03-06T23:03:09;7.33;;;7.13;;
8361;SDS011;4218;48.326;14.304;2024-03-06T23:05:35;9.33;;;9.03;;
8361;SDS011;4218;48.326;14.304;2024-03-06T23:08:01;9.60;;;9.30;;
8361;SDS011;4218;48.326;14.304;2024-03-06T23:10:29;7.40;;;7.20;;
8361;SDS011;4218;48.326;14.304;2024-03-06T23:12:55;7.60;;;7.40;;
8361;SDS011;4218;48.326;14.304;2024-03-06T23:15:20;7.43;;;7.23;;
8361;SDS011;4218;48.326;14.304;2024-03-06T23:17:46;7.90;;;7.70;;
8361;SDS011;4218;48.326;14.304;2024-03-06T23:20:12;6.77;;;6.57;;
8361;SDS011;4218;48.326;14.304;2024-03-06T23:22:42;7.37;;;7.17;;
8361;SDS011;4218;48.326;14.304;2024-03-06T23:25:11;9.40;;;9.10;;
8361;SDS011;4218;48.326;14.304;2024-03-06T23:27:41;7.80;;;7.60;;
8361;SDS011;4218;48.326;14.304;2024-03-06T23:30:11;9.00;;;8.70;;
8361;SDS011;4218;48.326;14.304;2024-03-06T23:32:37;8.80;;;8.50;;
8361;SDS011;4218;48.326;14.304;2024-03-06T23:35:04;8.90;;;8.60;;
8361;SDS011;4218;48.326;14.304;2024-03-06T23:37:31;7.80;;;7.60;;
8361;SDS011;4218;48.326;14.304;2024-03-06T23:40:01;7.53;;;7.33;;
8361;SDS011;4218;48.326;14.304;2024-03-06T23:42:30;7.80;;;7.60;;
8361;SDS011;4218;48.326;14.304;2024-03-06T23:44:56;7.73;;;7.53;;
8361;SDS011;4218;48.326;14.304;2024-03-06T23:47:21;8.73;;;8.43;;
8361;SDS011;4218;48.326;14.304;2024-03-06T23:49:50;12.13;;;11.33;;
8361;SDS011;4218;48.326;14.304;2024-03-06T23:52:15;10.60;;;10.07;;
8361;SDS011;4218;48.326;14.304;2024-03-06T23:54:42;7.63;;;7.33;;
8361;SDS011;4218;48.326;14.304;2024-03-06T23:57:08;10.23;;;9.60;;
8361;SDS011;4218;48.326;14.304;2024-03-06T23:59:34;8.83;;;8.53;;
